Weather at Donnydeade Airstrip

Public forecast

Using degrees Celsius for public forecast. Weather courtesy of forecast.io.

Closest aviation weather report (METAR) to Donnydeade Airstrip

Closest report is Belfast International Airport, 21.3 nm (39.5 km) ENE. Retrieved 2022/06/28 23:20 UTC (10 minutes ago):

EGAA 282320Z AUTO 16007KT 9999 FEW035 BKN048 13/12 Q1005 REDZ

Closest aviation forecast (TAF) to Donnydeade Airstrip

Closest forecast is Belfast International Airport, 21.3 nm (39.5 km) ENE. Retrieved 2022/06/28 18:00 UTC (6 hours ago):

TAF EGAA 281659Z 2818/2918 17010KT 9999 FEW015 SCT030 TEMPO 2818/2820 7000 SHRA PROB30 TEMPO 2909/2911 7000 SHRA BKN014 TEMPO 2911/2918 7000 SHRA